createdAt,value
2022-08-25T00:00:29.061Z,14.94
2022-08-25T00:01:30.378Z,14.94
2022-08-25T00:02:29.080Z,14.91
2022-08-25T00:03:29.021Z,14.90
2022-08-25T00:04:30.012Z,14.91
2022-08-25T00:05:29.348Z,14.86
2022-08-25T00:06:29.014Z,14.86
2022-08-25T00:07:28.972Z,14.80
2022-08-25T00:08:28.951Z,14.79
2022-08-25T00:09:28.941Z,14.78
2022-08-25T00:10:28.931Z,14.72
2022-08-25T00:11:28.944Z,14.72
2022-08-25T00:12:28.910Z,14.64
2022-08-25T00:13:28.881Z,14.66
2022-08-25T00:14:28.882Z,14.61
2022-08-25T00:15:28.926Z,14.59
2022-08-25T00:16:28.889Z,14.57
2022-08-25T00:17:28.841Z,14.57
2022-08-25T00:18:28.841Z,14.53
2022-08-25T00:19:28.815Z,14.52
2022-08-25T00:20:28.822Z,14.52
2022-08-25T00:21:28.813Z,14.48
2022-08-25T00:22:28.775Z,14.46
2022-08-25T00:23:28.761Z,14.46
2022-08-25T00:24:28.752Z,14.44
2022-08-25T00:25:28.732Z,14.45
2022-08-25T00:26:28.758Z,14.46
2022-08-25T00:27:28.711Z,14.42
2022-08-25T00:28:28.691Z,14.42
2022-08-25T00:29:28.673Z,14.39
2022-08-25T00:30:28.704Z,14.36
2022-08-25T00:31:38.598Z,14.34
2022-08-25T00:32:29.643Z,14.29
2022-08-25T00:33:28.622Z,14.30
2022-08-25T00:34:28.620Z,14.29
2022-08-25T00:35:28.602Z,14.29
2022-08-25T00:36:28.619Z,14.27
2022-08-25T00:37:28.580Z,14.21
2022-08-25T00:38:28.562Z,14.23
2022-08-25T00:39:28.543Z,14.17
2022-08-25T00:40:28.614Z,14.16
2022-08-25T00:41:28.554Z,14.20
2022-08-25T00:42:28.512Z,14.17
2022-08-25T00:43:28.493Z,14.11
2022-08-25T00:44:28.490Z,14.16
2022-08-25T00:45:28.484Z,14.12
2022-08-25T00:46:28.510Z,14.11
2022-08-25T00:47:28.456Z,14.11
2022-08-25T00:48:28.432Z,14.09
2022-08-25T00:49:28.412Z,14.08
2022-08-25T00:50:28.413Z,14.04
2022-08-25T00:51:28.432Z,14.06
2022-08-25T00:52:28.383Z,14.05
2022-08-25T00:53:28.371Z,14.05
2022-08-25T00:54:28.361Z,14.02
2022-08-25T00:55:28.342Z,14.02
2022-08-25T00:56:28.332Z,13.98
2022-08-25T00:57:34.008Z,14.01
2022-08-25T00:58:29.352Z,13.94
2022-08-25T00:59:28.282Z,13.94
2022-08-25T01:00:28.297Z,13.94
2022-08-25T01:01:28.348Z,13.98
2022-08-25T01:02:28.340Z,13.94
2022-08-25T01:03:32.945Z,13.94
2022-08-25T01:04:29.223Z,13.99
2022-08-25T01:05:28.212Z,13.94
2022-08-25T01:06:28.204Z,13.99
2022-08-25T01:07:28.226Z,13.98
2022-08-25T01:08:28.968Z,13.98
2022-08-25T01:09:28.157Z,13.98
2022-08-25T01:10:28.143Z,13.98
2022-08-25T01:11:28.132Z,13.98
2022-08-25T01:12:28.152Z,13.99
2022-08-25T01:13:28.133Z,13.96
2022-08-25T01:14:28.092Z,13.96
2022-08-25T01:15:28.145Z,13.94
2022-08-25T01:16:28.073Z,13.94
2022-08-25T01:17:28.099Z,13.96
2022-08-25T01:18:28.052Z,13.93
2022-08-25T01:19:28.023Z,13.93
2022-08-25T01:20:29.540Z,13.90
2022-08-25T01:21:28.002Z,13.91
2022-08-25T01:22:28.023Z,13.90
2022-08-25T01:23:27.973Z,13.90
2022-08-25T01:24:27.972Z,13.86
2022-08-25T01:25:27.942Z,13.87
2022-08-25T01:26:30.490Z,13.83
2022-08-25T01:27:27.974Z,13.81
2022-08-25T01:28:27.912Z,13.80
2022-08-25T01:29:27.902Z,13.76
2022-08-25T01:30:27.892Z,13.73
2022-08-25T01:31:27.946Z,13.72
2022-08-25T01:32:27.890Z,13.69
2022-08-25T01:33:27.842Z,13.69
2022-08-25T01:34:27.841Z,13.65
2022-08-25T01:35:27.819Z,13.65
2022-08-25T01:36:27.812Z,13.62
2022-08-25T01:37:27.843Z,13.61
2022-08-25T01:38:27.782Z,13.55
2022-08-25T01:39:27.772Z,13.59
2022-08-25T01:40:27.824Z,13.62
2022-08-25T01:41:27.739Z,13.57
2022-08-25T01:42:27.762Z,13.54
2022-08-25T01:43:27.717Z,13.55
2022-08-25T01:44:27.706Z,13.51
2022-08-25T01:45:27.682Z,13.55
2022-08-25T01:46:27.762Z,13.50
2022-08-25T01:47:27.702Z,13.50
2022-08-25T01:48:27.654Z,13.47
2022-08-25T01:49:27.649Z,13.44
2022-08-25T01:50:27.624Z,13.43
2022-08-25T01:51:27.614Z,13.38
2022-08-25T01:52:27.631Z,13.39
2022-08-25T01:53:27.584Z,13.36
2022-08-25T01:54:27.574Z,13.35
2022-08-25T01:55:27.563Z,13.32
2022-08-25T01:56:27.584Z,13.31
2022-08-25T01:57:27.614Z,13.29
2022-08-25T01:58:27.543Z,13.24
2022-08-25T01:59:27.515Z,13.24
2022-08-25T02:00:27.500Z,13.22
2022-08-25T02:01:27.525Z,13.21
2022-08-25T02:02:27.513Z,13.21
2022-08-25T02:03:27.452Z,13.16
2022-08-25T02:04:27.446Z,13.16
2022-08-25T02:05:27.452Z,13.19
2022-08-25T02:06:28.686Z,13.21
2022-08-25T02:07:27.417Z,13.21
2022-08-25T02:08:27.390Z,13.22
2022-08-25T02:09:27.382Z,13.21
2022-08-25T02:10:27.363Z,13.24
2022-08-25T02:11:27.383Z,13.25
2022-08-25T02:12:27.333Z,13.22
2022-08-25T02:13:31.091Z,13.24
2022-08-25T02:14:27.314Z,13.24
2022-08-25T02:15:27.305Z,13.29
2022-08-25T02:16:27.361Z,13.31
2022-08-25T02:17:27.283Z,13.28
2022-08-25T02:18:27.254Z,13.31
2022-08-25T02:19:27.252Z,13.31
2022-08-25T02:20:27.251Z,13.28
2022-08-25T02:21:27.262Z,13.28
2022-08-25T02:22:27.216Z,13.31
2022-08-25T02:23:27.201Z,13.28
2022-08-25T02:24:27.184Z,13.29
2022-08-25T02:25:27.175Z,13.27
2022-08-25T02:26:27.153Z,13.24
2022-08-25T02:27:27.191Z,13.25
2022-08-25T02:28:27.144Z,13.22
2022-08-25T02:29:27.134Z,13.22
2022-08-25T02:30:27.132Z,13.17
2022-08-25T02:31:27.102Z,13.16
2022-08-25T02:32:27.103Z,13.14
2022-08-25T02:33:27.064Z,13.16
2022-08-25T02:34:27.053Z,13.14
2022-08-25T02:35:27.044Z,13.19
2022-08-25T02:36:27.022Z,13.19
2022-08-25T02:37:27.042Z,13.21
2022-08-25T02:38:26.994Z,13.21
2022-08-25T02:39:26.996Z,13.22
2022-08-25T02:40:27.044Z,13.22
2022-08-25T02:41:31.260Z,13.21
2022-08-25T02:42:26.993Z,13.24
2022-08-25T02:43:26.943Z,13.17
2022-08-25T02:44:26.924Z,13.14
2022-08-25T02:45:26.911Z,13.17
2022-08-25T02:46:27.066Z,13.12
2022-08-25T02:47:27.314Z,13.07
2022-08-25T02:48:26.865Z,13.04
2022-08-25T02:49:26.907Z,13.06
2022-08-25T02:50:26.856Z,13.09
2022-08-25T02:51:26.852Z,13.07
2022-08-25T02:52:26.855Z,13.04
2022-08-25T02:53:26.822Z,13.04
2022-08-25T02:54:26.796Z,13.01
2022-08-25T02:55:26.782Z,13.01
2022-08-25T02:56:26.783Z,12.98
2022-08-25T02:57:26.792Z,12.95
2022-08-25T02:58:26.763Z,12.92
2022-08-25T02:59:26.733Z,12.94
2022-08-25T03:00:26.772Z,12.91
2022-08-25T03:01:28.669Z,12.89
2022-08-25T03:02:26.722Z,12.88
2022-08-25T03:03:26.673Z,12.88
2022-08-25T03:04:26.716Z,12.87
2022-08-25T03:05:26.656Z,12.81
2022-08-25T03:06:26.638Z,12.85
2022-08-25T03:07:26.674Z,12.85
2022-08-25T03:08:26.612Z,12.80
2022-08-25T03:09:26.596Z,12.81
2022-08-25T03:10:26.590Z,12.77
2022-08-25T03:11:26.659Z,12.79
2022-08-25T03:12:26.632Z,12.76
2022-08-25T03:13:26.553Z,12.76
2022-08-25T03:14:26.533Z,12.76
2022-08-25T03:15:26.523Z,12.77
2022-08-25T03:16:27.598Z,12.81
2022-08-25T03:17:26.503Z,12.79
2022-08-25T03:18:26.484Z,12.77
2022-08-25T03:19:26.464Z,12.77
2022-08-25T03:20:26.450Z,12.80
2022-08-25T03:21:26.477Z,12.77
2022-08-25T03:22:26.433Z,12.79
2022-08-25T03:23:26.422Z,12.76
2022-08-25T03:24:26.401Z,12.79
2022-08-25T03:25:26.415Z,12.80
2022-08-25T03:26:26.412Z,12.81
2022-08-25T03:27:26.403Z,12.81
2022-08-25T03:28:30.097Z,12.80
2022-08-25T03:29:26.343Z,12.85
2022-08-25T03:30:26.322Z,12.88
2022-08-25T03:31:26.436Z,12.92
2022-08-25T03:32:26.545Z,12.91
2022-08-25T03:33:26.293Z,12.92
2022-08-25T03:34:26.262Z,12.95
2022-08-25T03:35:26.263Z,12.92
2022-08-25T03:36:26.245Z,12.94
2022-08-25T03:37:26.275Z,12.92
2022-08-25T03:38:26.212Z,12.96
2022-08-25T03:39:26.233Z,12.94
2022-08-25T03:40:26.273Z,12.95
2022-08-25T03:41:27.859Z,12.96
2022-08-25T03:42:26.202Z,13.01
2022-08-25T03:43:26.152Z,12.98
2022-08-25T03:44:26.135Z,13.01
2022-08-25T03:45:26.179Z,12.98
2022-08-25T03:46:26.114Z,13.01
2022-08-25T03:47:26.170Z,13.03
2022-08-25T03:48:26.085Z,13.04
2022-08-25T03:49:26.042Z,13.03
2022-08-25T03:50:26.112Z,13.01
2022-08-25T03:51:26.053Z,13.01
2022-08-25T03:52:26.093Z,12.96
2022-08-25T03:53:25.973Z,12.99
2022-08-25T03:54:26.012Z,12.98
2022-08-25T03:55:26.004Z,12.96
2022-08-25T03:56:26.032Z,12.95
2022-08-25T03:57:25.972Z,12.95
2022-08-25T03:58:25.973Z,12.91
2022-08-25T03:59:25.964Z,12.89
2022-08-25T04:00:25.896Z,12.87
2022-08-25T04:01:25.933Z,12.88
2022-08-25T04:02:25.922Z,12.87
2022-08-25T04:03:25.844Z,12.89
2022-08-25T04:04:25.822Z,12.85
2022-08-25T04:05:26.742Z,12.87
2022-08-25T04:06:25.792Z,12.85
2022-08-25T04:07:25.854Z,12.88
2022-08-25T04:08:25.773Z,12.91
2022-08-25T04:09:25.763Z,12.87
2022-08-25T04:10:25.750Z,12.87
2022-08-25T04:11:25.734Z,12.85
2022-08-25T04:12:25.742Z,12.87
2022-08-25T04:13:25.713Z,12.87
2022-08-25T04:14:25.699Z,12.85
2022-08-25T04:15:28.101Z,12.89
2022-08-25T04:16:25.728Z,12.87
2022-08-25T04:17:25.696Z,12.84
2022-08-25T04:18:25.671Z,12.81
2022-08-25T04:19:25.666Z,12.81
2022-08-25T04:20:25.640Z,12.81
2022-08-25T04:21:25.605Z,12.84
2022-08-25T04:22:25.614Z,12.81
2022-08-25T04:23:25.604Z,12.81
2022-08-25T04:24:25.562Z,12.81
2022-08-25T04:25:25.561Z,12.81
2022-08-25T04:26:25.532Z,12.80
2022-08-25T04:27:25.574Z,12.87
2022-08-25T04:28:25.520Z,12.85
2022-08-25T04:29:25.511Z,12.87
2022-08-25T04:30:25.482Z,12.84
2022-08-25T04:31:25.530Z,12.85
2022-08-25T04:32:25.490Z,12.81
2022-08-25T04:33:25.453Z,12.81
2022-08-25T04:34:29.853Z,12.77
2022-08-25T04:35:26.423Z,12.77
2022-08-25T04:36:25.463Z,12.74
2022-08-25T04:37:25.441Z,12.73
2022-08-25T04:38:25.377Z,12.69
2022-08-25T04:39:25.373Z,12.71
2022-08-25T04:40:27.953Z,12.67
2022-08-25T04:41:25.353Z,12.67
2022-08-25T04:42:25.363Z,12.67
2022-08-25T04:43:25.364Z,12.63
2022-08-25T04:44:25.355Z,12.63
2022-08-25T04:45:25.365Z,12.62
2022-08-25T04:46:25.272Z,12.63
2022-08-25T04:47:25.433Z,12.62
2022-08-25T04:48:25.513Z,12.63
2022-08-25T04:49:25.403Z,12.66
2022-08-25T04:50:25.262Z,12.62
2022-08-25T04:51:25.222Z,12.61
2022-08-25T04:52:25.244Z,12.59
2022-08-25T04:53:25.202Z,12.58
2022-08-25T04:54:26.140Z,12.59
2022-08-25T04:55:25.172Z,12.62
2022-08-25T04:56:25.191Z,12.62
2022-08-25T04:57:25.372Z,12.59
2022-08-25T04:58:25.352Z,12.59
2022-08-25T04:59:25.112Z,12.61
2022-08-25T05:00:26.099Z,12.61
2022-08-25T05:01:25.137Z,12.62
2022-08-25T05:02:25.114Z,12.66
2022-08-25T05:03:25.082Z,12.63
2022-08-25T05:04:27.701Z,12.66
2022-08-25T05:05:25.033Z,12.69
2022-08-25T05:06:25.012Z,12.74
2022-08-25T05:07:25.342Z,12.73
2022-08-25T05:08:24.982Z,12.77
2022-08-25T05:09:25.173Z,12.79
2022-08-25T05:10:24.971Z,12.81
2022-08-25T05:11:24.952Z,12.89
2022-08-25T05:12:24.962Z,12.92
2022-08-25T05:13:24.933Z,12.98
2022-08-25T05:14:26.232Z,12.96
2022-08-25T05:15:24.938Z,13.01
2022-08-25T05:16:24.941Z,13.10
2022-08-25T05:17:24.904Z,13.14
2022-08-25T05:18:24.918Z,13.22
2022-08-25T05:19:24.991Z,13.28
2022-08-25T05:20:24.871Z,13.29
2022-08-25T05:21:24.845Z,13.38
2022-08-25T05:22:24.834Z,13.39
2022-08-25T05:23:24.799Z,13.47
2022-08-25T05:24:24.788Z,13.51
2022-08-25T05:25:24.772Z,13.48
2022-08-25T05:26:24.753Z,13.53
2022-08-25T05:27:24.792Z,13.59
2022-08-25T05:28:24.723Z,13.59
2022-08-25T05:29:24.725Z,13.59
2022-08-25T05:30:24.724Z,13.62
2022-08-25T05:31:24.737Z,13.57
2022-08-25T05:32:24.713Z,13.59
2022-08-25T05:33:24.665Z,13.59
2022-08-25T05:34:24.673Z,13.61
2022-08-25T05:35:24.643Z,13.66
2022-08-25T05:36:24.631Z,13.63
2022-08-25T05:37:24.682Z,13.68
2022-08-25T05:38:24.592Z,13.69
2022-08-25T05:39:26.822Z,13.73
2022-08-25T05:40:24.624Z,13.76
2022-08-25T05:41:24.589Z,13.79
2022-08-25T05:42:24.573Z,13.86
2022-08-25T05:43:24.539Z,13.93
2022-08-25T05:44:24.519Z,13.93
2022-08-25T05:45:24.554Z,13.99
2022-08-25T05:46:24.500Z,14.04
2022-08-25T05:47:24.523Z,14.06
2022-08-25T05:48:24.488Z,14.12
2022-08-25T05:49:24.463Z,14.17
2022-08-25T05:50:24.445Z,14.21
2022-08-25T05:51:24.432Z,14.27
2022-08-25T05:52:24.453Z,14.30
2022-08-25T05:53:24.403Z,14.31
2022-08-25T05:54:24.393Z,14.38
2022-08-25T05:55:24.547Z,14.39
2022-08-25T05:56:24.397Z,14.42
2022-08-25T05:57:24.383Z,14.45
2022-08-25T05:58:24.343Z,14.52
2022-08-25T05:59:24.464Z,14.60
2022-08-25T06:00:24.348Z,14.63
2022-08-25T06:01:25.146Z,14.72
2022-08-25T06:02:24.343Z,14.80
2022-08-25T06:03:24.298Z,14.87
2022-08-25T06:04:24.253Z,14.95
2022-08-25T06:05:24.292Z,14.98
2022-08-25T06:06:24.233Z,15.01
2022-08-25T06:07:24.263Z,15.09
2022-08-25T06:08:24.223Z,15.19
2022-08-25T06:09:24.212Z,15.20
2022-08-25T06:10:24.184Z,15.25
2022-08-25T06:11:24.182Z,15.31
2022-08-25T06:12:24.233Z,15.35
2022-08-25T06:13:28.791Z,15.44
2022-08-25T06:14:25.132Z,15.51
2022-08-25T06:15:24.128Z,15.60
2022-08-25T06:16:24.263Z,15.71
2022-08-25T06:17:24.114Z,15.77
2022-08-25T06:18:24.073Z,15.81
2022-08-25T06:19:24.073Z,15.88
2022-08-25T06:20:25.393Z,15.95
2022-08-25T06:21:24.038Z,15.95
2022-08-25T06:22:24.096Z,16.01
2022-08-25T06:23:24.964Z,16.06
2022-08-25T06:24:24.003Z,16.13
2022-08-25T06:25:23.983Z,16.17
2022-08-25T06:26:23.983Z,16.23
2022-08-25T06:27:24.024Z,16.27
2022-08-25T06:28:23.954Z,16.32
2022-08-25T06:29:23.934Z,16.37
2022-08-25T06:30:27.194Z,16.44
2022-08-25T06:31:24.976Z,16.50
2022-08-25T06:32:23.902Z,16.59
2022-08-25T06:33:23.897Z,16.60
2022-08-25T06:34:24.340Z,16.70
2022-08-25T06:35:23.856Z,16.81
2022-08-25T06:36:23.937Z,16.91
2022-08-25T06:37:25.299Z,17.00
2022-08-25T06:38:23.822Z,17.07
2022-08-25T06:39:23.818Z,17.18
2022-08-25T06:40:23.818Z,17.22
2022-08-25T06:41:23.804Z,17.30
2022-08-25T06:42:23.764Z,17.38
2022-08-25T06:43:23.745Z,17.45
2022-08-25T06:44:23.744Z,17.51
2022-08-25T06:45:23.718Z,17.58
2022-08-25T06:46:35.720Z,17.68
2022-08-25T06:47:24.846Z,17.76
2022-08-25T06:48:23.692Z,17.81
2022-08-25T06:49:23.706Z,17.91
2022-08-25T06:50:23.666Z,17.99
2022-08-25T06:51:23.676Z,18.11
2022-08-25T06:52:29.212Z,18.16
2022-08-25T06:53:24.635Z,18.28
2022-08-25T06:54:23.618Z,18.38
2022-08-25T06:55:24.674Z,18.57
2022-08-25T06:56:23.984Z,18.87
2022-08-25T06:57:23.575Z,19.17
2022-08-25T06:58:26.405Z,19.40
2022-08-25T06:59:23.536Z,19.67
2022-08-25T07:00:23.527Z,19.97
2022-08-25T07:01:25.925Z,20.20
2022-08-25T07:02:23.515Z,20.34
2022-08-25T07:04:23.527Z,20.73
2022-08-25T07:05:33.669Z,20.94
2022-08-25T07:06:24.526Z,21.08
2022-08-25T07:07:23.446Z,21.06
2022-08-25T07:08:23.426Z,21.05
2022-08-25T07:09:23.430Z,21.06
2022-08-25T07:10:23.435Z,21.06
2022-08-25T07:11:23.432Z,21.08
2022-08-25T07:12:23.376Z,21.16
2022-08-25T07:13:23.358Z,21.21
2022-08-25T07:14:23.354Z,21.26
2022-08-25T07:15:23.326Z,21.31
2022-08-25T07:16:23.346Z,21.38
2022-08-25T07:17:24.337Z,21.42
2022-08-25T07:18:23.528Z,21.49
2022-08-25T07:19:23.286Z,21.51
2022-08-25T07:21:25.343Z,21.63
2022-08-25T07:22:24.268Z,21.71
2022-08-25T07:23:23.227Z,21.75
2022-08-25T07:24:23.327Z,21.81
2022-08-25T07:25:23.198Z,21.89
2022-08-25T07:26:39.231Z,21.98
2022-08-25T07:27:24.458Z,22.11
2022-08-25T07:28:23.539Z,22.21
2022-08-25T07:29:26.550Z,22.29
2022-08-25T07:30:24.302Z,22.35
2022-08-25T07:31:23.244Z,22.45
2022-08-25T07:32:24.232Z,22.56
2022-08-25T07:33:23.090Z,22.64
2022-08-25T07:34:23.103Z,22.70
2022-08-25T07:36:24.121Z,22.97
2022-08-25T07:37:48.173Z,23.06
2022-08-25T07:38:24.042Z,23.12
2022-08-25T07:39:23.023Z,23.19
2022-08-25T07:40:23.129Z,23.32
2022-08-25T07:41:22.990Z,23.52
2022-08-25T07:42:23.011Z,23.69
2022-08-25T07:43:22.971Z,23.84
2022-08-25T07:44:22.963Z,24.00
2022-08-25T07:45:22.940Z,24.14
2022-08-25T07:46:22.991Z,24.29
2022-08-25T07:47:23.158Z,24.36
2022-08-25T07:48:22.921Z,24.51
2022-08-25T07:49:23.639Z,24.70
2022-08-25T07:50:22.882Z,24.97
2022-08-25T07:51:22.909Z,25.29
2022-08-25T07:52:22.883Z,25.74
2022-08-25T07:53:22.843Z,26.08
2022-08-25T07:54:22.830Z,26.42
2022-08-25T07:55:23.815Z,26.66
2022-08-25T07:56:22.803Z,26.94
2022-08-25T07:57:22.823Z,27.21
2022-08-25T07:58:22.821Z,27.35
2022-08-25T07:59:22.764Z,27.48
2022-08-25T08:00:22.759Z,27.58
2022-08-25T08:01:22.804Z,27.62
2022-08-25T08:02:24.806Z,27.55
2022-08-25T08:03:44.791Z,27.72
2022-08-25T08:04:23.701Z,27.88
2022-08-25T08:05:23.925Z,28.14
2022-08-25T08:06:22.688Z,28.33
2022-08-25T08:07:23.154Z,28.57
2022-08-25T08:08:22.915Z,28.79
2022-08-25T08:09:22.735Z,28.98
2022-08-25T08:10:47.868Z,29.11
2022-08-25T08:11:23.959Z,29.27
2022-08-25T08:12:22.609Z,29.29
2022-08-25T08:13:22.693Z,29.39
2022-08-25T08:14:22.576Z,29.47
2022-08-25T08:15:22.558Z,29.35
2022-08-25T08:16:22.602Z,29.39
2022-08-25T08:17:22.576Z,29.52
2022-08-25T08:18:22.797Z,29.57
2022-08-25T08:19:23.217Z,29.66
2022-08-25T08:20:23.263Z,29.74
2022-08-25T08:21:22.481Z,29.85
2022-08-25T08:22:22.497Z,29.92
2022-08-25T08:23:22.458Z,29.94
2022-08-25T08:24:40.546Z,29.99
2022-08-25T08:25:27.359Z,30.08
2022-08-25T08:26:22.533Z,30.07
2022-08-25T08:27:23.429Z,30.06
2022-08-25T08:28:22.389Z,29.95
2022-08-25T08:29:22.589Z,30.00
2022-08-25T08:30:22.442Z,30.18
2022-08-25T08:31:22.648Z,30.32
2022-08-25T08:32:23.166Z,30.36
2022-08-25T08:33:23.441Z,30.36
2022-08-25T08:34:24.742Z,30.53
2022-08-25T08:35:22.602Z,30.72
2022-08-25T08:36:22.292Z,30.75
2022-08-25T08:37:22.998Z,30.76
2022-08-25T08:38:27.197Z,30.82
2022-08-25T08:39:28.914Z,30.82
2022-08-25T08:40:22.613Z,30.97
2022-08-25T08:41:23.022Z,31.09
2022-08-25T08:42:22.436Z,31.15
2022-08-25T08:43:22.203Z,31.25
2022-08-25T08:44:22.374Z,31.30
2022-08-25T08:45:22.219Z,31.32
2022-08-25T08:46:26.149Z,31.46
2022-08-25T08:47:22.914Z,31.50
2022-08-25T08:48:22.123Z,31.57
2022-08-25T08:49:22.282Z,31.60
2022-08-25T08:50:27.833Z,31.54
2022-08-25T08:51:23.406Z,31.52
2022-08-25T08:52:22.294Z,31.57
2022-08-25T08:53:22.055Z,31.56
2022-08-25T08:54:23.153Z,31.60
2022-08-25T08:55:22.032Z,31.65
2022-08-25T08:56:22.036Z,31.52
2022-08-25T08:57:22.036Z,31.31
2022-08-25T08:58:26.321Z,31.30
2022-08-25T08:59:21.987Z,31.25
2022-08-25T09:00:22.972Z,31.25
2022-08-25T09:01:22.019Z,31.28
2022-08-25T09:02:38.749Z,31.31
2022-08-25T09:03:23.017Z,31.50
2022-08-25T09:04:21.978Z,31.65
2022-08-25T09:05:21.988Z,31.74
2022-08-25T09:06:21.899Z,31.76
2022-08-25T09:07:21.919Z,31.92
2022-08-25T09:08:21.868Z,32.05
2022-08-25T09:09:21.859Z,31.99
2022-08-25T09:10:21.848Z,31.92
2022-08-25T09:11:21.849Z,31.98
2022-08-25T09:12:21.848Z,32.06
2022-08-25T09:13:21.833Z,32.17
2022-08-25T09:14:21.799Z,31.99
2022-08-25T09:15:22.797Z,32.17
2022-08-25T09:16:33.073Z,32.31
2022-08-25T09:17:22.781Z,31.99
2022-08-25T09:18:21.781Z,32.10
2022-08-25T09:19:23.493Z,32.10
2022-08-25T09:20:21.876Z,32.09
2022-08-25T09:21:21.712Z,32.02
2022-08-25T09:22:33.545Z,31.98
2022-08-25T09:23:22.673Z,31.78
2022-08-25T09:24:21.662Z,31.05
2022-08-25T09:25:39.685Z,30.42
2022-08-25T09:26:22.640Z,30.21
2022-08-25T09:27:21.653Z,30.66
2022-08-25T09:28:21.616Z,30.96
2022-08-25T09:29:21.608Z,31.30
2022-08-25T09:30:25.002Z,31.67
2022-08-25T09:31:22.854Z,31.95
2022-08-25T09:32:24.078Z,32.24
2022-08-25T09:33:21.561Z,31.59
2022-08-25T09:34:21.546Z,31.79
2022-08-25T09:35:21.525Z,32.07
2022-08-25T09:36:21.525Z,32.29
2022-08-25T09:37:21.525Z,32.43
2022-08-25T09:38:21.485Z,32.65
2022-08-25T09:39:21.492Z,32.78
2022-08-25T09:40:21.525Z,32.83
2022-08-25T09:41:21.447Z,32.22
2022-08-25T09:42:23.806Z,31.34
2022-08-25T09:43:21.427Z,30.68
2022-08-25T09:44:21.426Z,30.57
2022-08-25T09:45:21.398Z,30.76
2022-08-25T09:46:21.415Z,31.15
2022-08-25T09:47:21.438Z,31.59
2022-08-25T09:48:21.371Z,31.60
2022-08-25T09:49:21.394Z,31.41
2022-08-25T09:50:21.339Z,31.12
2022-08-25T09:51:21.320Z,30.97
2022-08-25T09:52:21.341Z,30.42
2022-08-25T09:53:21.794Z,29.81
2022-08-25T09:54:21.320Z,29.95
2022-08-25T09:55:21.274Z,29.69
2022-08-25T09:56:21.262Z,29.32
2022-08-25T09:57:21.323Z,28.97
2022-08-25T09:58:22.160Z,28.64
2022-08-25T09:59:21.228Z,28.46
2022-08-25T10:00:22.213Z,28.92
2022-08-25T10:01:22.557Z,29.66
2022-08-25T10:02:21.234Z,30.16
2022-08-25T10:03:22.488Z,30.64
2022-08-25T10:04:21.179Z,30.93
2022-08-25T10:05:23.351Z,30.59
2022-08-25T10:06:21.144Z,30.26
2022-08-25T10:07:21.144Z,29.85
2022-08-25T10:08:24.672Z,29.41
2022-08-25T10:09:21.094Z,29.02
2022-08-25T10:10:21.085Z,28.64
2022-08-25T10:11:21.253Z,28.73
2022-08-25T10:12:21.210Z,29.15
2022-08-25T10:13:22.593Z,29.18
2022-08-25T10:14:21.038Z,29.66
2022-08-25T10:15:29.671Z,29.89
2022-08-25T10:16:24.920Z,29.71
2022-08-25T10:17:21.027Z,29.37
2022-08-25T10:18:21.002Z,29.05
2022-08-25T10:19:20.978Z,28.77
2022-08-25T10:20:20.997Z,28.42
2022-08-25T10:21:20.941Z,28.20
2022-08-25T10:22:20.960Z,27.93
2022-08-25T10:23:20.919Z,27.71
2022-08-25T10:24:20.917Z,27.58
2022-08-25T10:25:21.039Z,27.48
2022-08-25T10:26:20.939Z,27.38
2022-08-25T10:27:20.958Z,27.34
2022-08-25T10:28:20.879Z,27.43
2022-08-25T10:29:20.981Z,27.46
2022-08-25T10:30:20.821Z,27.52
2022-08-25T10:31:20.944Z,27.58
2022-08-25T10:32:20.840Z,27.61
2022-08-25T10:33:20.812Z,27.59
2022-08-25T10:34:20.774Z,27.55
2022-08-25T10:35:20.762Z,27.58
2022-08-25T10:36:21.331Z,27.66
2022-08-25T10:37:20.742Z,28.51
2022-08-25T10:38:21.783Z,28.97
2022-08-25T10:39:31.731Z,29.63
2022-08-25T10:40:21.770Z,30.40
2022-08-25T10:41:20.686Z,31.03
2022-08-25T10:42:20.672Z,31.52
2022-08-25T10:43:23.878Z,32.05
2022-08-25T10:44:20.654Z,32.53
2022-08-25T10:45:22.027Z,33.00
2022-08-25T10:46:20.651Z,33.43
2022-08-25T10:47:20.734Z,33.35
2022-08-25T10:48:20.933Z,33.38
2022-08-25T10:49:20.586Z,33.41
2022-08-25T10:50:20.585Z,33.47
2022-08-25T10:51:25.314Z,33.53
2022-08-25T10:52:21.696Z,33.56
2022-08-25T10:53:20.636Z,33.65
2022-08-25T10:54:20.538Z,33.63
2022-08-25T10:55:20.657Z,33.09
2022-08-25T10:56:20.644Z,32.68
2022-08-25T10:57:20.488Z,32.59
2022-08-25T10:58:21.418Z,32.80
2022-08-25T10:59:20.520Z,32.91
2022-08-25T11:00:20.447Z,33.02
2022-08-25T11:01:29.016Z,33.14
2022-08-25T11:02:21.420Z,33.11
2022-08-25T11:03:20.478Z,33.12
2022-08-25T11:04:20.439Z,33.03
2022-08-25T11:05:24.624Z,33.20
2022-08-25T11:06:20.420Z,33.31
2022-08-25T11:07:20.814Z,32.84
2022-08-25T11:08:20.769Z,32.17
2022-08-25T11:09:20.342Z,31.78
2022-08-25T11:10:20.322Z,31.87
2022-08-25T11:11:20.312Z,32.10
2022-08-25T11:12:20.292Z,32.25
2022-08-25T11:13:20.312Z,31.79
2022-08-25T11:14:20.282Z,31.59
2022-08-25T11:15:20.305Z,31.91
2022-08-25T11:16:20.255Z,32.16
2022-08-25T11:17:20.275Z,32.56
2022-08-25T11:18:20.235Z,32.13
2022-08-25T11:19:20.216Z,31.76
2022-08-25T11:20:26.916Z,31.38
2022-08-25T11:21:22.044Z,31.47
2022-08-25T11:22:20.180Z,31.72
2022-08-25T11:23:20.517Z,32.03
2022-08-25T11:24:20.175Z,32.40
2022-08-25T11:25:20.147Z,32.68
2022-08-25T11:26:20.144Z,33.00
2022-08-25T11:27:21.633Z,33.21
2022-08-25T11:28:20.137Z,33.07
2022-08-25T11:29:20.087Z,32.81
2022-08-25T11:30:20.069Z,32.53
2022-08-25T11:31:20.898Z,32.27
2022-08-25T11:32:20.748Z,31.87
2022-08-25T11:33:20.238Z,31.41
2022-08-25T11:34:20.073Z,31.49
2022-08-25T11:35:20.198Z,31.85
2022-08-25T11:36:20.109Z,32.13
2022-08-25T11:37:20.236Z,31.84
2022-08-25T11:38:20.010Z,31.57
2022-08-25T11:39:19.971Z,31.75
2022-08-25T11:40:20.016Z,31.69
2022-08-25T11:41:19.941Z,31.94
2022-08-25T11:42:19.931Z,32.21
2022-08-25T11:43:19.952Z,32.31
2022-08-25T11:44:19.904Z,32.19
2022-08-25T11:45:19.894Z,32.09
2022-08-25T11:46:19.917Z,31.79
2022-08-25T11:47:21.240Z,31.50
2022-08-25T11:48:19.872Z,31.30
2022-08-25T11:49:19.834Z,31.54
2022-08-25T11:50:19.823Z,31.85
2022-08-25T11:51:19.820Z,32.22
2022-08-25T11:52:19.835Z,32.65
2022-08-25T11:53:23.603Z,32.93
2022-08-25T11:54:20.789Z,33.15
2022-08-25T11:55:23.038Z,33.37
2022-08-25T11:56:19.766Z,33.44
2022-08-25T11:57:19.770Z,33.68
2022-08-25T11:58:19.726Z,33.97
2022-08-25T11:59:19.732Z,34.11
2022-08-25T12:00:19.728Z,34.28
2022-08-25T12:01:19.694Z,34.43
2022-08-25T12:02:19.697Z,34.48
2022-08-25T12:03:19.668Z,34.52
2022-08-25T12:04:19.691Z,34.73
2022-08-25T12:05:19.963Z,34.76
2022-08-25T12:06:19.628Z,34.86
2022-08-25T12:07:19.649Z,34.99
2022-08-25T12:08:19.601Z,34.94
2022-08-25T12:09:19.598Z,34.98
2022-08-25T12:10:19.581Z,34.88
2022-08-25T12:11:19.570Z,34.76
2022-08-25T12:12:19.580Z,34.71
2022-08-25T12:13:19.542Z,34.56
2022-08-25T12:14:19.531Z,34.55
2022-08-25T12:15:19.522Z,34.63
2022-08-25T12:16:19.542Z,34.72
2022-08-25T12:17:19.492Z,34.40
2022-08-25T12:18:19.503Z,34.53
2022-08-25T12:19:19.473Z,34.60
2022-08-25T12:20:19.613Z,34.73
2022-08-25T12:21:19.673Z,34.88
2022-08-25T12:22:19.610Z,35.03
2022-08-25T12:23:20.444Z,35.10
2022-08-25T12:24:19.436Z,35.12
2022-08-25T12:25:19.483Z,35.12
2022-08-25T12:26:19.445Z,35.18
2022-08-25T12:27:19.569Z,35.32
2022-08-25T12:28:19.561Z,35.31
2022-08-25T12:29:19.356Z,35.32
2022-08-25T12:30:20.891Z,35.29
2022-08-25T12:31:19.437Z,35.31
2022-08-25T12:32:19.462Z,35.20
2022-08-25T12:33:19.375Z,35.18
2022-08-25T12:34:19.315Z,35.15
2022-08-25T12:35:20.319Z,35.27
2022-08-25T12:36:19.507Z,35.29
2022-08-25T12:37:19.259Z,35.24
2022-08-25T12:38:19.269Z,35.13
2022-08-25T12:39:19.439Z,35.18
2022-08-25T12:40:20.498Z,34.94
2022-08-25T12:41:19.200Z,34.88
2022-08-25T12:42:21.968Z,34.84
2022-08-25T12:43:20.210Z,34.84
2022-08-25T12:44:19.162Z,34.88
2022-08-25T12:45:19.152Z,35.00
2022-08-25T12:46:19.220Z,35.17
2022-08-25T12:47:19.131Z,35.29
2022-08-25T12:48:19.157Z,35.47
2022-08-25T12:49:19.104Z,35.66
2022-08-25T12:50:19.097Z,35.76
2022-08-25T12:51:19.083Z,35.58
2022-08-25T12:52:19.106Z,35.36
2022-08-25T12:53:19.054Z,35.29
2022-08-25T12:54:22.361Z,35.39
2022-08-25T12:55:19.025Z,35.46